SCFS weather

Los Calafates Airport
Chonchi, Los Lagos Region, Chile

Public forecast

Using degrees Celsius for public forecast. Weather courtesy of forecast.io.

METAR (pilot weather report)

Closest report is Mocopulli Airport, 21.8 nm (40.5 km) NNE. Retrieved 2019/04/26 15:00 UTC (36 minutes ago):

SCPQ 261500Z 36006KT 3000 -SHRA OVC004 11/10 Q1019

TAF (pilot weather forecast)

Closest forecast is Mocopulli Airport, 21.8 nm (40.5 km) NNE. Retrieved 2019/04/26 12:00 UTC (4 hours ago):

TAF SCPQ 261039Z 2612/2624 36005KT 3000 BR OVC002 TN10/2612Z TX14/2619Z BECMG 2619/2621 35010KT 7000 -RA SCT005 BKN020